sensor_id;sensor_type;location;lat;lon;timestamp;P1;durP1;ratioP1;P2;durP2;ratioP2
40072;SDS011;25774;52.256;9.356;2024-02-21T00:03:27;31.45;;;13.40;;
40072;SDS011;25774;52.256;9.356;2024-02-21T00:05:55;33.53;;;13.65;;
40072;SDS011;25774;52.256;9.356;2024-02-21T00:08:20;28.67;;;13.25;;
40072;SDS011;25774;52.256;9.356;2024-02-21T00:10:45;37.17;;;14.70;;
40072;SDS011;25774;52.256;9.356;2024-02-21T00:13:11;29.43;;;13.33;;
40072;SDS011;25774;52.256;9.356;2024-02-21T00:15:36;35.33;;;15.75;;
40072;SDS011;25774;52.256;9.356;2024-02-21T00:18:02;32.53;;;14.57;;
40072;SDS011;25774;52.256;9.356;2024-02-21T00:20:27;34.27;;;14.30;;
40072;SDS011;25774;52.256;9.356;2024-02-21T00:22:53;33.03;;;14.60;;
40072;SDS011;25774;52.256;9.356;2024-02-21T00:25:18;27.02;;;14.77;;
40072;SDS011;25774;52.256;9.356;2024-02-21T00:27:43;34.90;;;14.37;;
40072;SDS011;25774;52.256;9.356;2024-02-21T00:30:09;29.97;;;15.27;;
40072;SDS011;25774;52.256;9.356;2024-02-21T00:32:34;35.67;;;14.63;;
40072;SDS011;25774;52.256;9.356;2024-02-21T00:34:59;39.67;;;15.13;;
40072;SDS011;25774;52.256;9.356;2024-02-21T00:37:27;30.07;;;14.53;;
40072;SDS011;25774;52.256;9.356;2024-02-21T00:39:53;32.65;;;15.05;;
40072;SDS011;25774;52.256;9.356;2024-02-21T00:44:44;33.20;;;14.43;;
40072;SDS011;25774;52.256;9.356;2024-02-21T00:47:09;34.93;;;15.60;;
40072;SDS011;25774;52.256;9.356;2024-02-21T00:49:36;34.05;;;14.73;;
40072;SDS011;25774;52.256;9.356;2024-02-21T00:52:01;35.35;;;15.75;;
40072;SDS011;25774;52.256;9.356;2024-02-21T00:54:26;33.33;;;14.00;;
40072;SDS011;25774;52.256;9.356;2024-02-21T00:56:52;32.27;;;15.27;;
40072;SDS011;25774;52.256;9.356;2024-02-21T00:59:17;35.05;;;14.52;;
40072;SDS011;25774;52.256;9.356;2024-02-21T01:01:43;36.37;;;15.80;;
40072;SDS011;25774;52.256;9.356;2024-02-21T01:04:11;35.07;;;15.80;;
40072;SDS011;25774;52.256;9.356;2024-02-21T01:06:36;31.20;;;15.68;;
40072;SDS011;25774;52.256;9.356;2024-02-21T01:09:01;28.10;;;13.83;;
40072;SDS011;25774;52.256;9.356;2024-02-21T01:11:27;39.10;;;15.17;;
40072;SDS011;25774;52.256;9.356;2024-02-21T01:13:52;28.70;;;13.63;;
40072;SDS011;25774;52.256;9.356;2024-02-21T01:16:18;36.57;;;15.70;;
40072;SDS011;25774;52.256;9.356;2024-02-21T01:18:43;27.70;;;14.20;;
40072;SDS011;25774;52.256;9.356;2024-02-21T01:21:08;35.90;;;15.07;;
40072;SDS011;25774;52.256;9.356;2024-02-21T01:26:00;30.87;;;13.77;;
40072;SDS011;25774;52.256;9.356;2024-02-21T01:28:25;33.03;;;14.77;;
40072;SDS011;25774;52.256;9.356;2024-02-21T01:30:50;34.43;;;13.43;;
40072;SDS011;25774;52.256;9.356;2024-02-21T01:33:16;25.75;;;13.98;;
40072;SDS011;25774;52.256;9.356;2024-02-21T01:35:41;26.57;;;13.73;;
40072;SDS011;25774;52.256;9.356;2024-02-21T01:38:07;31.60;;;14.90;;
40072;SDS011;25774;52.256;9.356;2024-02-21T01:40:33;35.27;;;15.17;;
40072;SDS011;25774;52.256;9.356;2024-02-21T01:42:58;30.17;;;15.18;;
40072;SDS011;25774;52.256;9.356;2024-02-21T01:45:25;30.27;;;15.47;;
40072;SDS011;25774;52.256;9.356;2024-02-21T01:47:51;30.83;;;14.38;;
40072;SDS011;25774;52.256;9.356;2024-02-21T01:50:16;40.23;;;16.47;;
40072;SDS011;25774;52.256;9.356;2024-02-21T01:52:42;32.73;;;15.33;;
40072;SDS011;25774;52.256;9.356;2024-02-21T01:55:09;40.70;;;15.57;;
40072;SDS011;25774;52.256;9.356;2024-02-21T01:57:34;28.73;;;15.02;;
40072;SDS011;25774;52.256;9.356;2024-02-21T02:00:00;35.73;;;17.00;;
40072;SDS011;25774;52.256;9.356;2024-02-21T02:02:25;34.43;;;15.90;;
40072;SDS011;25774;52.256;9.356;2024-02-21T02:04:51;31.43;;;16.13;;
40072;SDS011;25774;52.256;9.356;2024-02-21T02:07:16;34.10;;;16.23;;
40072;SDS011;25774;52.256;9.356;2024-02-21T02:09:43;36.27;;;15.63;;
40072;SDS011;25774;52.256;9.356;2024-02-21T02:12:08;32.88;;;14.73;;
40072;SDS011;25774;52.256;9.356;2024-02-21T02:14:34;37.50;;;16.27;;
40072;SDS011;25774;52.256;9.356;2024-02-21T02:16:59;33.92;;;14.98;;
40072;SDS011;25774;52.256;9.356;2024-02-21T02:19:25;34.37;;;16.63;;
40072;SDS011;25774;52.256;9.356;2024-02-21T02:21:51;28.63;;;15.13;;
40072;SDS011;25774;52.256;9.356;2024-02-21T02:24:23;33.40;;;16.17;;
40072;SDS011;25774;52.256;9.356;2024-02-21T02:26:49;30.92;;;14.68;;
40072;SDS011;25774;52.256;9.356;2024-02-21T02:29:14;33.13;;;15.30;;
40072;SDS011;25774;52.256;9.356;2024-02-21T02:31:39;30.90;;;15.40;;
40072;SDS011;25774;52.256;9.356;2024-02-21T02:34:05;34.50;;;15.47;;
40072;SDS011;25774;52.256;9.356;2024-02-21T02:36:32;41.87;;;17.07;;
40072;SDS011;25774;52.256;9.356;2024-02-21T02:38:57;33.03;;;15.98;;
40072;SDS011;25774;52.256;9.356;2024-02-21T02:41:22;27.13;;;14.47;;
40072;SDS011;25774;52.256;9.356;2024-02-21T02:43:48;29.03;;;15.43;;
40072;SDS011;25774;52.256;9.356;2024-02-21T02:46:14;35.17;;;16.77;;
40072;SDS011;25774;52.256;9.356;2024-02-21T02:48:39;29.55;;;14.98;;
40072;SDS011;25774;52.256;9.356;2024-02-21T02:51:04;25.87;;;13.97;;
40072;SDS011;25774;52.256;9.356;2024-02-21T02:53:29;28.97;;;15.13;;
40072;SDS011;25774;52.256;9.356;2024-02-21T02:55:55;33.30;;;14.57;;
40072;SDS011;25774;52.256;9.356;2024-02-21T02:58:20;32.60;;;15.27;;
40072;SDS011;25774;52.256;9.356;2024-02-21T03:00:47;37.15;;;15.75;;
40072;SDS011;25774;52.256;9.356;2024-02-21T03:03:12;30.75;;;14.98;;
40072;SDS011;25774;52.256;9.356;2024-02-21T03:05:37;32.03;;;14.33;;
40072;SDS011;25774;52.256;9.356;2024-02-21T03:08:03;30.53;;;14.30;;
40072;SDS011;25774;52.256;9.356;2024-02-21T03:10:33;28.50;;;14.93;;
40072;SDS011;25774;52.256;9.356;2024-02-21T03:12:58;33.17;;;13.93;;
40072;SDS011;25774;52.256;9.356;2024-02-21T03:15:23;34.17;;;15.90;;
40072;SDS011;25774;52.256;9.356;2024-02-21T03:17:50;28.93;;;14.20;;
40072;SDS011;25774;52.256;9.356;2024-02-21T03:20:15;26.85;;;15.20;;
40072;SDS011;25774;52.256;9.356;2024-02-21T03:22:40;36.27;;;17.13;;
40072;SDS011;25774;52.256;9.356;2024-02-21T03:25:06;35.57;;;16.13;;
40072;SDS011;25774;52.256;9.356;2024-02-21T03:27:33;40.17;;;15.98;;
40072;SDS011;25774;52.256;9.356;2024-02-21T03:29:59;30.48;;;15.65;;
40072;SDS011;25774;52.256;9.356;2024-02-21T03:32:24;34.83;;;15.17;;
40072;SDS011;25774;52.256;9.356;2024-02-21T03:34:49;27.10;;;15.00;;
40072;SDS011;25774;52.256;9.356;2024-02-21T03:37:14;33.90;;;15.00;;
40072;SDS011;25774;52.256;9.356;2024-02-21T03:39:40;31.30;;;14.97;;
40072;SDS011;25774;52.256;9.356;2024-02-21T03:42:05;39.22;;;15.77;;
40072;SDS011;25774;52.256;9.356;2024-02-21T03:44:31;28.60;;;16.23;;
40072;SDS011;25774;52.256;9.356;2024-02-21T03:46:56;35.53;;;15.05;;
40072;SDS011;25774;52.256;9.356;2024-02-21T03:49:22;28.13;;;15.83;;
40072;SDS011;25774;52.256;9.356;2024-02-21T03:51:48;33.33;;;16.97;;
40072;SDS011;25774;52.256;9.356;2024-02-21T03:54:13;32.47;;;16.17;;
40072;SDS011;25774;52.256;9.356;2024-02-21T03:56:39;32.93;;;15.97;;
40072;SDS011;25774;52.256;9.356;2024-02-21T03:59:05;31.75;;;15.30;;
40072;SDS011;25774;52.256;9.356;2024-02-21T04:01:30;30.00;;;15.57;;
40072;SDS011;25774;52.256;9.356;2024-02-21T04:03:55;34.27;;;16.97;;
40072;SDS011;25774;52.256;9.356;2024-02-21T04:06:20;35.03;;;17.77;;
40072;SDS011;25774;52.256;9.356;2024-02-21T04:08:46;33.73;;;16.80;;
40072;SDS011;25774;52.256;9.356;2024-02-21T04:11:13;36.60;;;16.07;;
40072;SDS011;25774;52.256;9.356;2024-02-21T04:13:38;36.20;;;15.90;;
40072;SDS011;25774;52.256;9.356;2024-02-21T04:16:04;32.80;;;15.40;;
40072;SDS011;25774;52.256;9.356;2024-02-21T04:18:31;33.28;;;16.48;;
40072;SDS011;25774;52.256;9.356;2024-02-21T04:20:56;38.17;;;17.53;;
40072;SDS011;25774;52.256;9.356;2024-02-21T04:23:21;34.67;;;16.23;;
40072;SDS011;25774;52.256;9.356;2024-02-21T04:25:47;34.43;;;15.43;;
40072;SDS011;25774;52.256;9.356;2024-02-21T04:28:12;28.40;;;14.87;;
40072;SDS011;25774;52.256;9.356;2024-02-21T04:30:37;33.90;;;14.40;;
40072;SDS011;25774;52.256;9.356;2024-02-21T04:33:02;29.47;;;14.97;;
40072;SDS011;25774;52.256;9.356;2024-02-21T04:35:28;39.57;;;16.50;;
40072;SDS011;25774;52.256;9.356;2024-02-21T04:37:55;38.37;;;14.57;;
40072;SDS011;25774;52.256;9.356;2024-02-21T04:40:20;31.50;;;14.77;;
40072;SDS011;25774;52.256;9.356;2024-02-21T04:42:47;34.43;;;15.53;;
40072;SDS011;25774;52.256;9.356;2024-02-21T04:45:13;33.75;;;14.73;;
40072;SDS011;25774;52.256;9.356;2024-02-21T04:47:38;36.30;;;15.93;;
40072;SDS011;25774;52.256;9.356;2024-02-21T04:50:03;35.37;;;16.00;;
40072;SDS011;25774;52.256;9.356;2024-02-21T04:52:29;34.60;;;16.10;;
40072;SDS011;25774;52.256;9.356;2024-02-21T04:54:55;31.55;;;14.60;;
40072;SDS011;25774;52.256;9.356;2024-02-21T04:57:20;29.23;;;15.50;;
40072;SDS011;25774;52.256;9.356;2024-02-21T04:59:46;32.23;;;16.00;;
40072;SDS011;25774;52.256;9.356;2024-02-21T05:02:13;31.35;;;15.82;;
40072;SDS011;25774;52.256;9.356;2024-02-21T05:04:38;40.90;;;16.40;;
40072;SDS011;25774;52.256;9.356;2024-02-21T05:07:04;37.87;;;16.53;;
40072;SDS011;25774;52.256;9.356;2024-02-21T05:09:30;31.98;;;16.88;;
40072;SDS011;25774;52.256;9.356;2024-02-21T05:11:55;33.87;;;18.50;;
40072;SDS011;25774;52.256;9.356;2024-02-21T05:14:20;36.07;;;16.53;;
40072;SDS011;25774;52.256;9.356;2024-02-21T05:16:45;31.77;;;17.17;;
40072;SDS011;25774;52.256;9.356;2024-02-21T05:19:11;31.23;;;16.13;;
40072;SDS011;25774;52.256;9.356;2024-02-21T05:21:36;33.03;;;16.37;;
40072;SDS011;25774;52.256;9.356;2024-02-21T05:24:01;30.80;;;16.33;;
40072;SDS011;25774;52.256;9.356;2024-02-21T05:26:27;39.00;;;17.97;;
40072;SDS011;25774;52.256;9.356;2024-02-21T05:28:53;38.63;;;18.40;;
40072;SDS011;25774;52.256;9.356;2024-02-21T05:31:18;34.77;;;16.03;;
40072;SDS011;25774;52.256;9.356;2024-02-21T05:33:44;36.70;;;17.48;;
40072;SDS011;25774;52.256;9.356;2024-02-21T05:36:09;38.47;;;16.80;;
40072;SDS011;25774;52.256;9.356;2024-02-21T05:38:35;38.53;;;17.23;;
40072;SDS011;25774;52.256;9.356;2024-02-21T05:41:00;31.87;;;15.50;;
40072;SDS011;25774;52.256;9.356;2024-02-21T05:43:26;33.07;;;16.73;;
40072;SDS011;25774;52.256;9.356;2024-02-21T05:45:52;30.65;;;16.38;;
40072;SDS011;25774;52.256;9.356;2024-02-21T05:48:18;26.00;;;15.33;;
40072;SDS011;25774;52.256;9.356;2024-02-21T05:50:43;35.47;;;16.48;;
40072;SDS011;25774;52.256;9.356;2024-02-21T05:53:09;36.73;;;17.43;;
40072;SDS011;25774;52.256;9.356;2024-02-21T05:55:36;36.22;;;16.85;;
40072;SDS011;25774;52.256;9.356;2024-02-21T05:58:03;30.00;;;15.40;;
40072;SDS011;25774;52.256;9.356;2024-02-21T06:00:28;32.72;;;15.40;;
40072;SDS011;25774;52.256;9.356;2024-02-21T06:02:53;31.53;;;15.77;;
40072;SDS011;25774;52.256;9.356;2024-02-21T06:05:19;29.03;;;14.53;;
40072;SDS011;25774;52.256;9.356;2024-02-21T06:07:44;29.53;;;14.83;;
40072;SDS011;25774;52.256;9.356;2024-02-21T06:10:09;26.23;;;15.27;;
40072;SDS011;25774;52.256;9.356;2024-02-21T06:12:35;26.47;;;15.67;;
40072;SDS011;25774;52.256;9.356;2024-02-21T06:15:00;32.07;;;15.50;;
40072;SDS011;25774;52.256;9.356;2024-02-21T06:17:25;31.00;;;16.33;;
40072;SDS011;25774;52.256;9.356;2024-02-21T06:19:50;31.10;;;15.77;;
40072;SDS011;25774;52.256;9.356;2024-02-21T06:22:15;32.87;;;16.20;;
40072;SDS011;25774;52.256;9.356;2024-02-21T06:24:41;32.93;;;16.73;;
40072;SDS011;25774;52.256;9.356;2024-02-21T06:27:06;28.47;;;14.77;;
40072;SDS011;25774;52.256;9.356;2024-02-21T06:29:32;31.13;;;14.97;;
40072;SDS011;25774;52.256;9.356;2024-02-21T06:31:57;30.90;;;13.70;;
40072;SDS011;25774;52.256;9.356;2024-02-21T06:34:23;30.37;;;15.53;;
40072;SDS011;25774;52.256;9.356;2024-02-21T06:36:50;31.25;;;14.80;;
40072;SDS011;25774;52.256;9.356;2024-02-21T06:41:40;30.58;;;14.55;;
40072;SDS011;25774;52.256;9.356;2024-02-21T06:44:06;29.80;;;13.83;;
40072;SDS011;25774;52.256;9.356;2024-02-21T06:46:31;26.23;;;14.57;;
40072;SDS011;25774;52.256;9.356;2024-02-21T06:48:59;32.72;;;14.50;;
40072;SDS011;25774;52.256;9.356;2024-02-21T06:51:25;27.20;;;15.00;;
40072;SDS011;25774;52.256;9.356;2024-02-21T06:53:50;30.80;;;14.57;;
40072;SDS011;25774;52.256;9.356;2024-02-21T06:56:15;25.80;;;12.90;;
40072;SDS011;25774;52.256;9.356;2024-02-21T06:58:41;30.20;;;13.57;;
40072;SDS011;25774;52.256;9.356;2024-02-21T07:01:06;33.13;;;14.67;;
40072;SDS011;25774;52.256;9.356;2024-02-21T07:03:31;25.17;;;13.60;;
40072;SDS011;25774;52.256;9.356;2024-02-21T07:05:56;25.37;;;13.53;;
40072;SDS011;25774;52.256;9.356;2024-02-21T07:08:22;32.10;;;12.93;;
40072;SDS011;25774;52.256;9.356;2024-02-21T07:10:48;22.67;;;12.23;;
40072;SDS011;25774;52.256;9.356;2024-02-21T07:13:13;24.77;;;13.02;;
40072;SDS011;25774;52.256;9.356;2024-02-21T07:15:40;35.10;;;15.02;;
40072;SDS011;25774;52.256;9.356;2024-02-21T07:18:06;28.10;;;13.50;;
40072;SDS011;25774;52.256;9.356;2024-02-21T07:20:32;29.13;;;12.70;;
40072;SDS011;25774;52.256;9.356;2024-02-21T07:22:59;29.05;;;13.65;;
40072;SDS011;25774;52.256;9.356;2024-02-21T07:25:24;30.98;;;14.30;;
40072;SDS011;25774;52.256;9.356;2024-02-21T07:27:49;29.03;;;13.30;;
40072;SDS011;25774;52.256;9.356;2024-02-21T07:30:14;30.40;;;14.27;;
40072;SDS011;25774;52.256;9.356;2024-02-21T07:32:40;29.13;;;13.33;;
40072;SDS011;25774;52.256;9.356;2024-02-21T07:35:05;29.70;;;14.00;;
40072;SDS011;25774;52.256;9.356;2024-02-21T07:37:31;30.67;;;14.17;;
40072;SDS011;25774;52.256;9.356;2024-02-21T07:39:57;29.88;;;13.43;;
40072;SDS011;25774;52.256;9.356;2024-02-21T07:42:23;32.73;;;13.93;;
40072;SDS011;25774;52.256;9.356;2024-02-21T07:44:48;33.38;;;14.23;;
40072;SDS011;25774;52.256;9.356;2024-02-21T07:47:13;25.43;;;12.47;;
40072;SDS011;25774;52.256;9.356;2024-02-21T07:49:45;30.03;;;13.33;;
40072;SDS011;25774;52.256;9.356;2024-02-21T07:52:11;25.92;;;13.50;;
40072;SDS011;25774;52.256;9.356;2024-02-21T07:54:36;30.10;;;13.17;;
40072;SDS011;25774;52.256;9.356;2024-02-21T07:57:01;35.97;;;13.33;;
40072;SDS011;25774;52.256;9.356;2024-02-21T07:59:27;25.90;;;12.50;;
40072;SDS011;25774;52.256;9.356;2024-02-21T08:01:55;26.93;;;12.17;;
40072;SDS011;25774;52.256;9.356;2024-02-21T08:04:21;27.73;;;12.75;;
40072;SDS011;25774;52.256;9.356;2024-02-21T08:06:46;25.47;;;11.90;;
40072;SDS011;25774;52.256;9.356;2024-02-21T08:09:15;25.05;;;11.23;;
40072;SDS011;25774;52.256;9.356;2024-02-21T08:11:41;24.90;;;10.33;;
40072;SDS011;25774;52.256;9.356;2024-02-21T08:14:06;24.27;;;11.03;;
40072;SDS011;25774;52.256;9.356;2024-02-21T08:16:31;25.70;;;11.40;;
40072;SDS011;25774;52.256;9.356;2024-02-21T08:18:56;23.67;;;9.90;;
40072;SDS011;25774;52.256;9.356;2024-02-21T08:21:23;24.65;;;10.30;;
40072;SDS011;25774;52.256;9.356;2024-02-21T08:23:48;22.03;;;9.87;;
40072;SDS011;25774;52.256;9.356;2024-02-21T08:26:17;18.40;;;8.80;;
40072;SDS011;25774;52.256;9.356;2024-02-21T08:28:42;25.73;;;8.95;;
40072;SDS011;25774;52.256;9.356;2024-02-21T08:31:08;20.47;;;9.33;;
40072;SDS011;25774;52.256;9.356;2024-02-21T08:33:35;22.92;;;9.20;;
40072;SDS011;25774;52.256;9.356;2024-02-21T08:36:00;21.13;;;8.68;;
40072;SDS011;25774;52.256;9.356;2024-02-21T08:38:25;23.40;;;8.73;;
40072;SDS011;25774;52.256;9.356;2024-02-21T08:40:50;18.20;;;7.83;;
40072;SDS011;25774;52.256;9.356;2024-02-21T08:43:16;16.77;;;7.17;;
40072;SDS011;25774;52.256;9.356;2024-02-21T08:45:43;28.73;;;8.13;;
40072;SDS011;25774;52.256;9.356;2024-02-21T08:48:08;15.10;;;7.28;;
40072;SDS011;25774;52.256;9.356;2024-02-21T08:50:33;17.60;;;6.73;;
40072;SDS011;25774;52.256;9.356;2024-02-21T08:52:58;17.83;;;6.30;;
40072;SDS011;25774;52.256;9.356;2024-02-21T08:55:24;21.90;;;7.40;;
40072;SDS011;25774;52.256;9.356;2024-02-21T08:57:49;13.17;;;6.37;;
40072;SDS011;25774;52.256;9.356;2024-02-21T09:00:15;13.45;;;6.03;;
40072;SDS011;25774;52.256;9.356;2024-02-21T09:02:41;20.23;;;7.77;;
40072;SDS011;25774;52.256;9.356;2024-02-21T09:05:08;13.02;;;5.95;;
40072;SDS011;25774;52.256;9.356;2024-02-21T09:07:33;13.17;;;6.03;;
40072;SDS011;25774;52.256;9.356;2024-02-21T09:09:59;17.73;;;6.37;;
40072;SDS011;25774;52.256;9.356;2024-02-21T09:12:24;13.00;;;6.27;;
40072;SDS011;25774;52.256;9.356;2024-02-21T09:14:50;16.88;;;7.00;;
40072;SDS011;25774;52.256;9.356;2024-02-21T09:17:16;14.67;;;6.03;;
40072;SDS011;25774;52.256;9.356;2024-02-21T09:19:42;18.85;;;5.80;;
40072;SDS011;25774;52.256;9.356;2024-02-21T09:22:07;10.60;;;5.87;;
40072;SDS011;25774;52.256;9.356;2024-02-21T09:24:32;14.03;;;6.73;;
40072;SDS011;25774;52.256;9.356;2024-02-21T09:26:57;14.23;;;5.27;;
40072;SDS011;25774;52.256;9.356;2024-02-21T09:29:23;14.10;;;5.13;;
40072;SDS011;25774;52.256;9.356;2024-02-21T09:31:48;12.40;;;5.43;;
40072;SDS011;25774;52.256;9.356;2024-02-21T09:34:13;11.97;;;5.30;;
40072;SDS011;25774;52.256;9.356;2024-02-21T09:36:38;16.27;;;5.57;;
40072;SDS011;25774;52.256;9.356;2024-02-21T09:39:05;13.60;;;5.18;;
40072;SDS011;25774;52.256;9.356;2024-02-21T09:41:30;12.10;;;4.73;;
40072;SDS011;25774;52.256;9.356;2024-02-21T09:43:57;15.60;;;5.38;;
40072;SDS011;25774;52.256;9.356;2024-02-21T09:46:44;15.50;;;4.93;;
40072;SDS011;25774;52.256;9.356;2024-02-21T09:51:42;13.75;;;5.40;;
40072;SDS011;25774;52.256;9.356;2024-02-21T09:54:08;15.05;;;5.13;;
40072;SDS011;25774;52.256;9.356;2024-02-21T09:56:34;12.67;;;4.53;;
40072;SDS011;25774;52.256;9.356;2024-02-21T09:58:59;15.57;;;4.67;;
40072;SDS011;25774;52.256;9.356;2024-02-21T10:01:24;11.40;;;4.20;;
40072;SDS011;25774;52.256;9.356;2024-02-21T10:03:49;13.87;;;5.60;;
40072;SDS011;25774;52.256;9.356;2024-02-21T10:06:15;11.97;;;4.27;;
40072;SDS011;25774;52.256;9.356;2024-02-21T10:08:42;15.27;;;4.57;;
40072;SDS011;25774;52.256;9.356;2024-02-21T10:11:07;16.17;;;4.38;;
40072;SDS011;25774;52.256;9.356;2024-02-21T10:13:34;14.77;;;3.97;;
40072;SDS011;25774;52.256;9.356;2024-02-21T10:18:28;10.68;;;3.78;;
40072;SDS011;25774;52.256;9.356;2024-02-21T10:21:06;8.17;;;4.13;;
40072;SDS011;25774;52.256;9.356;2024-02-21T10:23:45;10.00;;;3.42;;
40072;SDS011;25774;52.256;9.356;2024-02-21T10:26:10;12.07;;;3.50;;
40072;SDS011;25774;52.256;9.356;2024-02-21T10:28:36;12.60;;;4.50;;
40072;SDS011;25774;52.256;9.356;2024-02-21T10:31:03;11.80;;;3.30;;
40072;SDS011;25774;52.256;9.356;2024-02-21T10:33:28;11.03;;;3.20;;
40072;SDS011;25774;52.256;9.356;2024-02-21T10:35:55;10.02;;;3.10;;
40072;SDS011;25774;52.256;9.356;2024-02-21T10:38:30;8.38;;;2.63;;
40072;SDS011;25774;52.256;9.356;2024-02-21T10:40:57;8.43;;;2.83;;
40072;SDS011;25774;52.256;9.356;2024-02-21T10:43:23;13.07;;;3.47;;
40072;SDS011;25774;52.256;9.356;2024-02-21T10:45:50;8.90;;;3.20;;
40072;SDS011;25774;52.256;9.356;2024-02-21T10:48:16;10.40;;;3.30;;
40072;SDS011;25774;52.256;9.356;2024-02-21T10:53:20;7.47;;;3.13;;
40072;SDS011;25774;52.256;9.356;2024-02-21T10:55:56;13.15;;;2.95;;
40072;SDS011;25774;52.256;9.356;2024-02-21T10:58:23;10.75;;;2.97;;
40072;SDS011;25774;52.256;9.356;2024-02-21T11:00:50;8.55;;;2.58;;
40072;SDS011;25774;52.256;9.356;2024-02-21T11:03:16;7.60;;;2.28;;
40072;SDS011;25774;52.256;9.356;2024-02-21T11:05:41;12.50;;;2.83;;
40072;SDS011;25774;52.256;9.356;2024-02-21T11:08:11;8.70;;;2.08;;
40072;SDS011;25774;52.256;9.356;2024-02-21T11:10:37;8.27;;;2.35;;
40072;SDS011;25774;52.256;9.356;2024-02-21T11:13:09;11.98;;;3.42;;
40072;SDS011;25774;52.256;9.356;2024-02-21T11:15:35;7.30;;;2.70;;
40072;SDS011;25774;52.256;9.356;2024-02-21T11:18:00;7.33;;;2.30;;
40072;SDS011;25774;52.256;9.356;2024-02-21T11:20:35;8.97;;;2.47;;
40072;SDS011;25774;52.256;9.356;2024-02-21T11:23:00;7.20;;;2.42;;
40072;SDS011;25774;52.256;9.356;2024-02-21T11:25:26;7.68;;;1.90;;
40072;SDS011;25774;52.256;9.356;2024-02-21T11:27:58;7.93;;;2.13;;
40072;SDS011;25774;52.256;9.356;2024-02-21T11:30:35;8.00;;;2.47;;
40072;SDS011;25774;52.256;9.356;2024-02-21T11:33:01;6.35;;;2.10;;
40072;SDS011;25774;52.256;9.356;2024-02-21T11:35:30;6.85;;;2.47;;
40072;SDS011;25774;52.256;9.356;2024-02-21T11:37:56;10.07;;;2.90;;
40072;SDS011;25774;52.256;9.356;2024-02-21T11:40:21;7.00;;;3.07;;
40072;SDS011;25774;52.256;9.356;2024-02-21T11:42:47;7.85;;;3.05;;
40072;SDS011;25774;52.256;9.356;2024-02-21T11:45:15;7.32;;;3.30;;
40072;SDS011;25774;52.256;9.356;2024-02-21T11:47:42;9.30;;;3.45;;
40072;SDS011;25774;52.256;9.356;2024-02-21T11:50:11;9.48;;;3.33;;
40072;SDS011;25774;52.256;9.356;2024-02-21T11:52:38;9.40;;;3.60;;
40072;SDS011;25774;52.256;9.356;2024-02-21T11:55:03;9.73;;;3.60;;
40072;SDS011;25774;52.256;9.356;2024-02-21T11:57:29;12.13;;;4.63;;
40072;SDS011;25774;52.256;9.356;2024-02-21T11:59:55;11.20;;;4.17;;
40072;SDS011;25774;52.256;9.356;2024-02-21T12:02:20;11.13;;;4.27;;
40072;SDS011;25774;52.256;9.356;2024-02-21T12:04:47;14.63;;;4.93;;
40072;SDS011;25774;52.256;9.356;2024-02-21T12:07:14;11.93;;;4.95;;
40072;SDS011;25774;52.256;9.356;2024-02-21T12:09:41;8.40;;;4.67;;
40072;SDS011;25774;52.256;9.356;2024-02-21T12:12:06;11.25;;;5.35;;
40072;SDS011;25774;52.256;9.356;2024-02-21T12:14:33;10.93;;;5.00;;
40072;SDS011;25774;52.256;9.356;2024-02-21T12:17:01;9.63;;;5.40;;
40072;SDS011;25774;52.256;9.356;2024-02-21T12:19:29;10.55;;;5.20;;
40072;SDS011;25774;52.256;9.356;2024-02-21T12:21:54;11.18;;;5.22;;
40072;SDS011;25774;52.256;9.356;2024-02-21T12:24:23;13.13;;;5.53;;
40072;SDS011;25774;52.256;9.356;2024-02-21T12:26:53;12.00;;;5.85;;
40072;SDS011;25774;52.256;9.356;2024-02-21T12:29:19;14.23;;;5.55;;
40072;SDS011;25774;52.256;9.356;2024-02-21T12:31:44;10.43;;;5.37;;
40072;SDS011;25774;52.256;9.356;2024-02-21T12:34:10;16.43;;;6.20;;
40072;SDS011;25774;52.256;9.356;2024-02-21T12:36:36;9.77;;;5.33;;
40072;SDS011;25774;52.256;9.356;2024-02-21T12:39:01;13.68;;;5.90;;
40072;SDS011;25774;52.256;9.356;2024-02-21T12:41:28;12.40;;;5.18;;
40072;SDS011;25774;52.256;9.356;2024-02-21T12:43:54;13.65;;;5.25;;
40072;SDS011;25774;52.256;9.356;2024-02-21T12:48:47;14.20;;;5.50;;
40072;SDS011;25774;52.256;9.356;2024-02-21T12:51:12;11.10;;;4.63;;
40072;SDS011;25774;52.256;9.356;2024-02-21T12:53:38;9.83;;;4.23;;
40072;SDS011;25774;52.256;9.356;2024-02-21T12:56:04;9.93;;;5.55;;
40072;SDS011;25774;52.256;9.356;2024-02-21T12:58:30;6.75;;;4.22;;
40072;SDS011;25774;52.256;9.356;2024-02-21T13:00:56;10.65;;;4.60;;
40072;SDS011;25774;52.256;9.356;2024-02-21T13:03:21;8.47;;;4.57;;
40072;SDS011;25774;52.256;9.356;2024-02-21T13:05:47;8.27;;;4.07;;
40072;SDS011;25774;52.256;9.356;2024-02-21T13:08:13;13.88;;;4.75;;
40072;SDS011;25774;52.256;9.356;2024-02-21T13:10:38;6.67;;;3.30;;
40072;SDS011;25774;52.256;9.356;2024-02-21T13:13:04;12.07;;;3.87;;
40072;SDS011;25774;52.256;9.356;2024-02-21T13:15:29;7.60;;;3.40;;
40072;SDS011;25774;52.256;9.356;2024-02-21T13:17:55;7.17;;;3.10;;
40072;SDS011;25774;52.256;9.356;2024-02-21T13:20:21;11.93;;;3.47;;
40072;SDS011;25774;52.256;9.356;2024-02-21T13:22:46;13.53;;;3.10;;
40072;SDS011;25774;52.256;9.356;2024-02-21T13:25:11;10.63;;;2.93;;
40072;SDS011;25774;52.256;9.356;2024-02-21T13:30:08;8.80;;;2.90;;
40072;SDS011;25774;52.256;9.356;2024-02-21T13:32:35;8.40;;;2.95;;
40072;SDS011;25774;52.256;9.356;2024-02-21T13:35:00;7.40;;;2.43;;
40072;SDS011;25774;52.256;9.356;2024-02-21T13:37:26;8.27;;;2.53;;
40072;SDS011;25774;52.256;9.356;2024-02-21T13:39:52;5.45;;;2.03;;
40072;SDS011;25774;52.256;9.356;2024-02-21T13:42:17;11.00;;;2.60;;
40072;SDS011;25774;52.256;9.356;2024-02-21T13:44:42;4.43;;;2.07;;
40072;SDS011;25774;52.256;9.356;2024-02-21T13:47:08;9.10;;;2.67;;
40072;SDS011;25774;52.256;9.356;2024-02-21T13:49:34;7.32;;;1.90;;
40072;SDS011;25774;52.256;9.356;2024-02-21T13:52:00;5.65;;;2.00;;
40072;SDS011;25774;52.256;9.356;2024-02-21T13:54:25;6.37;;;1.90;;
40072;SDS011;25774;52.256;9.356;2024-02-21T13:56:51;5.07;;;1.77;;
40072;SDS011;25774;52.256;9.356;2024-02-21T13:59:17;4.38;;;1.70;;
40072;SDS011;25774;52.256;9.356;2024-02-21T14:01:43;8.55;;;2.25;;
40072;SDS011;25774;52.256;9.356;2024-02-21T14:04:08;8.77;;;2.50;;
40072;SDS011;25774;52.256;9.356;2024-02-21T14:06:33;5.57;;;1.80;;
40072;SDS011;25774;52.256;9.356;2024-02-21T14:08:58;7.80;;;1.90;;
40072;SDS011;25774;52.256;9.356;2024-02-21T14:11:24;8.97;;;2.23;;
40072;SDS011;25774;52.256;9.356;2024-02-21T14:13:49;7.27;;;2.00;;
40072;SDS011;25774;52.256;9.356;2024-02-21T14:16:14;10.47;;;3.03;;
40072;SDS011;25774;52.256;9.356;2024-02-21T14:18:42;9.40;;;2.07;;
40072;SDS011;25774;52.256;9.356;2024-02-21T14:21:08;4.22;;;1.60;;
40072;SDS011;25774;52.256;9.356;2024-02-21T14:23:35;10.73;;;2.25;;
40072;SDS011;25774;52.256;9.356;2024-02-21T14:26:01;6.63;;;2.20;;
40072;SDS011;25774;52.256;9.356;2024-02-21T14:28:26;7.13;;;2.20;;
40072;SDS011;25774;52.256;9.356;2024-02-21T14:30:51;5.87;;;1.97;;
40072;SDS011;25774;52.256;9.356;2024-02-21T14:33:19;12.38;;;2.08;;
40072;SDS011;25774;52.256;9.356;2024-02-21T14:35:44;4.90;;;1.70;;
40072;SDS011;25774;52.256;9.356;2024-02-21T14:38:09;8.43;;;1.70;;
40072;SDS011;25774;52.256;9.356;2024-02-21T14:40:34;7.50;;;1.80;;
40072;SDS011;25774;52.256;9.356;2024-02-21T14:42:59;6.87;;;1.80;;